Terminal Aerodrome Forecast
Issued by NWS

Home | Current Version | Previous Version | Text Only | Print | Product List | Glossary On
Versions: 1 2 3 4 5 6 7 8 9 10 11 12 13 14 15 16 17 18 19 20 21 22 23 24 25
000
FTUS41 KBOX 231924 AAA
TAFACK
TAF AMD
KACK 231924Z 2319/2418 02012KT P6SM SCT008 BKN015
     FM240400 36010G25KT P6SM OVC015
     FM241100 34018G28KT P6SM OVC015
     FM241400 33019KT P6SM OVC025=

USA.gov is the U.S. government's official web portal to all federal, state and local government web resources and services.